createdAt,value
2018-09-04T00:01:27.231Z,18.87
2018-09-04T00:03:55.926Z,20.43
2018-09-04T00:06:24.637Z,23.43
2018-09-04T00:08:53.258Z,20.70
2018-09-04T00:11:21.948Z,18.80
2018-09-04T00:13:50.655Z,18.97
2018-09-04T00:16:19.909Z,18.67
2018-09-04T00:18:48.592Z,19.57
2018-09-04T00:21:17.888Z,22.77
2018-09-04T00:23:46.543Z,20.73
2018-09-04T00:26:15.199Z,24.87
2018-09-04T00:28:43.873Z,21.97
2018-09-04T00:31:12.553Z,20.03
2018-09-04T00:33:41.238Z,18.43
2018-09-04T00:36:10.054Z,21.10
2018-09-04T00:38:38.777Z,20.07
2018-09-04T00:41:07.747Z,23.20
2018-09-04T00:43:36.341Z,20.43
2018-09-04T00:46:06.041Z,22.40
2018-09-04T00:48:34.729Z,20.80
2018-09-04T00:51:03.389Z,22.63
2018-09-04T00:53:32.230Z,21.17
2018-09-04T00:56:00.909Z,19.43
2018-09-04T00:58:29.730Z,21.50
2018-09-04T01:00:58.480Z,21.13
2018-09-04T01:03:27.301Z,19.67
2018-09-04T01:05:56.088Z,19.43
2018-09-04T01:08:24.884Z,22.00
2018-09-04T01:10:54.057Z,19.30
2018-09-04T01:13:22.746Z,19.50
2018-09-04T01:15:51.458Z,17.67
2018-09-04T01:18:20.058Z,18.83
2018-09-04T01:20:48.704Z,19.77
2018-09-04T01:23:17.453Z,21.20
2018-09-04T01:25:46.329Z,21.23
2018-09-04T01:28:15.089Z,22.67
2018-09-04T01:30:43.697Z,22.27
2018-09-04T01:33:12.400Z,23.03
2018-09-04T01:35:41.121Z,20.80
2018-09-04T01:38:09.835Z,21.77
2018-09-04T01:40:38.658Z,24.07
2018-09-04T01:43:08.204Z,24.60
2018-09-04T01:45:36.993Z,23.73
2018-09-04T01:48:05.809Z,25.13
2018-09-04T01:50:34.473Z,23.83
2018-09-04T01:53:03.215Z,27.40
2018-09-04T01:55:31.910Z,25.97
2018-09-04T01:58:00.671Z,26.17
2018-09-04T02:00:30.422Z,27.60
2018-09-04T02:02:59.065Z,27.50
2018-09-04T02:05:28.266Z,32.27
2018-09-04T02:07:57.326Z,27.63
2018-09-04T02:10:26.146Z,28.90
2018-09-04T02:12:55.376Z,27.63
2018-09-04T02:15:24.173Z,26.50
2018-09-04T02:17:52.918Z,26.37
2018-09-04T02:20:22.698Z,26.80
2018-09-04T02:22:51.461Z,27.60
2018-09-04T02:25:20.290Z,25.80
2018-09-04T02:27:49.673Z,26.40
2018-09-04T02:30:18.403Z,29.30
2018-09-04T02:32:47.062Z,24.30
2018-09-04T02:35:15.842Z,26.60
2018-09-04T02:37:45.016Z,30.93
2018-09-04T02:40:13.777Z,33.00
2018-09-04T02:42:42.567Z,32.07
2018-09-04T02:45:11.331Z,30.40
2018-09-04T02:47:40.020Z,31.73
2018-09-04T02:50:09.056Z,30.83
2018-09-04T02:52:37.836Z,37.37
2018-09-04T02:55:07.025Z,33.40
2018-09-04T02:57:36.395Z,34.63
2018-09-04T03:00:05.186Z,31.13
2018-09-04T03:02:34.769Z,33.83
2018-09-04T03:05:03.405Z,33.80
2018-09-04T03:07:32.129Z,35.77
2018-09-04T03:10:00.909Z,36.27
2018-09-04T03:12:29.634Z,36.27
2018-09-04T03:15:01.265Z,35.53
2018-09-04T03:17:29.893Z,33.63
2018-09-04T03:19:59.398Z,36.33
2018-09-04T03:22:29.089Z,38.80
2018-09-04T03:24:59.458Z,35.83
2018-09-04T03:27:28.186Z,35.87
2018-09-04T03:29:56.897Z,34.40
2018-09-04T03:32:25.710Z,35.40
2018-09-04T03:34:54.332Z,37.70
2018-09-04T03:37:23.018Z,37.50
2018-09-04T03:39:51.984Z,35.97
2018-09-04T03:42:20.588Z,39.53
2018-09-04T03:44:49.443Z,35.43
2018-09-04T03:47:18.216Z,46.30
2018-09-04T03:49:47.050Z,35.60
2018-09-04T03:52:15.704Z,36.10
2018-09-04T03:54:44.244Z,41.70
2018-09-04T03:57:15.805Z,33.50
2018-09-04T03:59:44.558Z,39.13
2018-09-04T04:02:13.339Z,36.40
2018-09-04T04:04:41.959Z,39.13
2018-09-04T04:07:10.562Z,35.93
2018-09-04T04:09:39.380Z,34.37
2018-09-04T04:12:08.124Z,38.23
2018-09-04T04:14:37.845Z,37.63
2018-09-04T04:17:06.889Z,45.37
2018-09-04T04:19:35.610Z,48.47
2018-09-04T04:22:04.323Z,47.57
2018-09-04T04:24:33.001Z,42.53
2018-09-04T04:27:02.937Z,37.90
2018-09-04T04:29:32.059Z,38.20
2018-09-04T04:32:02.061Z,37.77
2018-09-04T04:34:31.462Z,35.57
2018-09-04T04:37:00.310Z,34.47
2018-09-04T04:39:29.364Z,34.60
2018-09-04T04:41:58.461Z,36.70
2018-09-04T04:44:27.250Z,34.07
2018-09-04T04:46:57.121Z,32.90
2018-09-04T04:49:26.787Z,37.57
2018-09-04T04:51:55.675Z,33.60
2018-09-04T04:54:24.334Z,34.97
2018-09-04T04:56:53.271Z,33.37
2018-09-04T04:59:21.856Z,30.60
2018-09-04T05:01:51.524Z,33.30
2018-09-04T05:04:24.048Z,36.30
2018-09-04T05:06:52.785Z,34.43
2018-09-04T05:09:21.461Z,34.30
2018-09-04T05:11:50.165Z,32.93
2018-09-04T05:14:19.003Z,35.30
2018-09-04T05:16:47.798Z,30.17
2018-09-04T05:19:17.451Z,28.10
2018-09-04T05:21:46.124Z,28.17
2018-09-04T05:24:14.853Z,32.50
2018-09-04T05:26:43.467Z,31.03
2018-09-04T05:29:12.272Z,29.53
2018-09-04T05:31:47.010Z,31.37
2018-09-04T05:34:15.904Z,27.30
2018-09-04T05:36:44.561Z,29.30
2018-09-04T05:39:13.195Z,27.53
2018-09-04T05:41:42.853Z,28.53
2018-09-04T05:44:11.729Z,27.47
2018-09-04T05:46:44.096Z,29.27
2018-09-04T05:49:15.367Z,30.60
2018-09-04T05:51:45.046Z,29.47
2018-09-04T05:54:13.861Z,26.27
2018-09-04T05:56:45.274Z,26.97
2018-09-04T05:59:14.001Z,28.60
2018-09-04T06:01:43.733Z,26.93
2018-09-04T06:04:12.559Z,28.40
2018-09-04T06:06:41.261Z,23.30
2018-09-04T06:09:10.151Z,23.27
2018-09-04T06:11:38.970Z,24.97
2018-09-04T06:14:07.701Z,28.27
2018-09-04T06:16:36.502Z,23.30
2018-09-04T06:19:05.402Z,23.73
2018-09-04T06:21:34.210Z,24.50
2018-09-04T06:24:03.052Z,23.77
2018-09-04T06:26:31.726Z,25.43
2018-09-04T06:29:00.465Z,23.90
2018-09-04T06:31:29.143Z,24.17
2018-09-04T06:33:57.972Z,25.53
2018-09-04T06:36:27.733Z,22.10
2018-09-04T06:38:56.304Z,18.13
2018-09-04T06:41:25.925Z,17.97
2018-09-04T06:43:56.001Z,21.90
2018-09-04T06:46:24.893Z,20.13
2018-09-04T06:48:53.514Z,17.30
2018-09-04T06:51:22.301Z,17.90
2018-09-04T06:53:50.963Z,19.67
2018-09-04T06:56:19.637Z,17.57
2018-09-04T06:58:48.553Z,18.83
2018-09-04T07:01:17.144Z,16.67
2018-09-04T07:03:45.764Z,16.73
2018-09-04T07:06:14.634Z,17.43
2018-09-04T07:08:43.317Z,19.23
2018-09-04T07:11:11.982Z,14.87
2018-09-04T07:13:40.839Z,22.13
2018-09-04T07:16:09.503Z,15.13
2018-09-04T07:18:38.465Z,15.77
2018-09-04T07:21:07.081Z,16.03
2018-09-04T07:23:35.836Z,16.77
2018-09-04T07:26:05.047Z,18.80
2018-09-04T07:28:33.814Z,13.77
2018-09-04T07:31:02.757Z,14.43
2018-09-04T07:33:31.388Z,13.23
2018-09-04T07:36:00.083Z,13.63
2018-09-04T07:38:28.834Z,14.77
2018-09-04T07:40:57.500Z,13.43
2018-09-04T07:43:26.370Z,15.50
2018-09-04T07:45:55.094Z,18.57
2018-09-04T07:48:24.719Z,15.33
2018-09-04T07:50:53.599Z,12.60
2018-09-04T07:53:22.211Z,15.13
2018-09-04T07:55:50.866Z,11.40
2018-09-04T07:58:20.314Z,11.77
2018-09-04T08:00:49.080Z,16.47
2018-09-04T08:03:17.891Z,16.63
2018-09-04T08:05:46.558Z,15.77
2018-09-04T08:08:15.631Z,13.37
2018-09-04T08:10:45.378Z,12.80
2018-09-04T08:13:14.063Z,13.73
2018-09-04T08:15:43.485Z,15.40
2018-09-04T08:18:12.225Z,15.13
2018-09-04T08:20:41.605Z,12.47
2018-09-04T08:23:10.185Z,12.23
2018-09-04T08:25:38.897Z,13.83
2018-09-04T08:28:07.959Z,17.57
2018-09-04T08:30:36.541Z,12.47
2018-09-04T08:33:05.369Z,14.70
2018-09-04T08:35:33.926Z,12.70
2018-09-04T08:38:02.592Z,11.67
2018-09-04T08:40:33.024Z,12.47
2018-09-04T08:43:02.148Z,15.93
2018-09-04T08:45:31.864Z,13.10
2018-09-04T08:48:01.937Z,12.70
2018-09-04T08:50:32.436Z,13.60
2018-09-04T08:53:01.412Z,14.77
2018-09-04T08:55:30.069Z,11.53
2018-09-04T08:57:58.769Z,11.43
2018-09-04T09:00:28.109Z,12.57
2018-09-04T09:02:56.755Z,13.50
2018-09-04T09:05:25.743Z,13.10
2018-09-04T09:07:54.678Z,11.60
2018-09-04T09:10:23.373Z,11.97
2018-09-04T09:12:52.342Z,10.90
2018-09-04T09:15:21.035Z,12.30
2018-09-04T09:17:51.022Z,15.07
2018-09-04T09:20:20.465Z,11.47
2018-09-04T09:22:49.952Z,13.97
2018-09-04T09:25:19.300Z,11.40
2018-09-04T09:27:48.386Z,11.77
2018-09-04T09:30:17.074Z,11.27
2018-09-04T09:32:45.802Z,12.53
2018-09-04T09:35:16.250Z,11.43
2018-09-04T09:37:44.958Z,11.03
2018-09-04T09:40:13.720Z,10.43
2018-09-04T09:42:44.331Z,8.90
2018-09-04T09:45:13.685Z,9.00
2018-09-04T09:47:47.525Z,11.87
2018-09-04T09:50:16.272Z,9.67
2018-09-04T09:52:45.599Z,8.57
2018-09-04T09:55:15.897Z,7.60
2018-09-04T09:57:44.651Z,7.97
2018-09-04T10:00:18.814Z,8.90
2018-09-04T10:02:55.597Z,12.80
2018-09-04T10:05:24.305Z,9.57
2018-09-04T10:07:53.292Z,13.43
2018-09-04T10:10:22.144Z,13.60
2018-09-04T10:12:50.917Z,13.27
2018-09-04T10:15:19.678Z,11.97
2018-09-04T10:17:48.436Z,21.77
2018-09-04T10:20:17.323Z,7.33
2018-09-04T10:22:46.013Z,8.37
2018-09-04T10:25:15.393Z,9.97
2018-09-04T10:27:44.157Z,8.97
2018-09-04T10:30:14.081Z,8.27
2018-09-04T10:32:57.253Z,10.70
2018-09-04T10:35:26.031Z,8.60
2018-09-04T10:37:54.765Z,7.83
2018-09-04T10:40:28.693Z,8.13
2018-09-04T10:42:57.322Z,10.53
2018-09-04T10:45:31.249Z,8.23
2018-09-04T10:47:59.997Z,8.73
2018-09-04T10:50:29.349Z,10.23
2018-09-04T10:52:58.181Z,34.13
2018-09-04T10:55:26.919Z,9.43
2018-09-04T10:57:55.800Z,9.13
2018-09-04T11:00:24.463Z,8.77
2018-09-04T11:02:53.385Z,7.60
2018-09-04T11:05:22.213Z,10.00
2018-09-04T11:07:50.934Z,8.40
2018-09-04T11:10:27.277Z,13.63
2018-09-04T11:12:56.093Z,7.83
2018-09-04T11:15:24.938Z,8.23
2018-09-04T11:17:53.961Z,7.53
2018-09-04T11:20:22.653Z,7.57
2018-09-04T11:22:51.613Z,7.97
2018-09-04T11:25:20.361Z,10.07
2018-09-04T11:27:50.086Z,7.40
2018-09-04T11:30:18.930Z,10.27
2018-09-04T11:32:48.123Z,8.10
2018-09-04T11:35:16.795Z,7.50
2018-09-04T11:37:45.506Z,8.00
2018-09-04T11:40:14.248Z,9.17
2018-09-04T11:45:16.894Z,9.47
2018-09-04T11:47:45.626Z,14.28
2018-09-04T11:50:14.304Z,9.33
2018-09-04T11:52:43.335Z,12.40
2018-09-04T11:55:12.369Z,7.40
2018-09-04T11:57:42.431Z,7.33
2018-09-04T12:00:16.058Z,10.13
2018-09-04T12:02:45.439Z,7.58
2018-09-04T12:05:14.145Z,6.95
2018-09-04T12:07:42.840Z,6.92
2018-09-04T12:10:11.628Z,9.58
2018-09-04T12:12:40.669Z,7.28
2018-09-04T12:15:09.195Z,8.78
2018-09-04T12:17:37.905Z,8.83
2018-09-04T12:20:14.400Z,7.40
2018-09-04T12:22:42.992Z,8.87
2018-09-04T12:25:11.626Z,8.10
2018-09-04T12:27:40.338Z,6.90
2018-09-04T12:30:09.079Z,8.60
2018-09-04T12:32:38.724Z,10.00
2018-09-04T12:35:08.453Z,8.10
2018-09-04T12:37:37.261Z,6.87
2018-09-04T12:40:06.156Z,6.73
2018-09-04T12:42:35.479Z,7.75
2018-09-04T12:45:04.180Z,9.05
2018-09-04T12:47:32.808Z,9.13
2018-09-04T12:50:01.704Z,7.17
2018-09-04T12:52:30.345Z,6.90
2018-09-04T12:54:59.057Z,7.97
2018-09-04T12:57:27.810Z,6.72
2018-09-04T12:59:58.727Z,10.50
2018-09-04T13:02:27.538Z,6.75
2018-09-04T13:04:56.118Z,7.05
2018-09-04T13:07:24.780Z,6.60
2018-09-04T13:09:53.712Z,8.25
2018-09-04T13:12:22.477Z,7.70
2018-09-04T13:14:51.507Z,9.63
2018-09-04T13:17:20.157Z,6.95
2018-09-04T13:19:48.837Z,7.10
2018-09-04T13:22:17.458Z,8.73
2018-09-04T13:24:46.326Z,6.83
2018-09-04T13:27:15.179Z,5.70
2018-09-04T13:29:43.737Z,6.20
2018-09-04T13:32:12.423Z,6.33
2018-09-04T13:34:41.225Z,6.55
2018-09-04T13:37:10.636Z,6.45
2018-09-04T13:39:39.236Z,5.45
2018-09-04T13:42:08.599Z,8.50
2018-09-04T13:44:37.302Z,6.25
2018-09-04T13:47:06.918Z,5.03
2018-09-04T13:49:36.739Z,5.87
2018-09-04T13:52:05.882Z,5.25
2018-09-04T13:54:34.514Z,6.28
2018-09-04T13:57:03.265Z,6.42
2018-09-04T13:59:31.888Z,5.03
2018-09-04T14:02:00.482Z,5.30
2018-09-04T14:04:29.130Z,6.55
2018-09-04T14:06:57.956Z,9.60
2018-09-04T14:09:26.876Z,6.33
2018-09-04T14:11:56.089Z,5.22
2018-09-04T14:14:26.541Z,8.58
2018-09-04T14:16:55.623Z,5.72
2018-09-04T14:19:25.629Z,5.83
2018-09-04T14:21:54.282Z,6.05
2018-09-04T14:24:22.986Z,5.75
2018-09-04T14:26:51.681Z,5.42
2018-09-04T14:29:53.163Z,5.37
2018-09-04T14:31:52.911Z,4.85
2018-09-04T14:34:21.432Z,5.03
2018-09-04T14:36:50.329Z,7.97
2018-09-04T14:39:18.803Z,4.55
2018-09-04T14:41:48.115Z,5.10
2018-09-04T14:44:17.816Z,5.58
2018-09-04T14:46:47.728Z,5.45
2018-09-04T14:49:16.655Z,6.97
2018-09-04T14:51:45.425Z,4.40
2018-09-04T14:54:14.176Z,11.08
2018-09-04T14:56:44.472Z,5.87
2018-09-04T14:59:13.111Z,7.03
2018-09-04T15:01:43.276Z,5.25
2018-09-04T15:04:12.018Z,21.10
2018-09-04T15:06:41.400Z,6.83
2018-09-04T15:09:13.110Z,8.75
2018-09-04T15:11:41.769Z,6.62
2018-09-04T15:14:10.306Z,6.95
2018-09-04T15:16:39.423Z,8.87
2018-09-04T15:19:08.332Z,8.00
2018-09-04T15:21:37.988Z,86.05
2018-09-04T15:24:07.867Z,126.00
2018-09-04T15:26:36.971Z,18.60
2018-09-04T15:29:05.553Z,7.83
2018-09-04T15:31:35.320Z,8.17
2018-09-04T15:34:03.929Z,5.30
2018-09-04T15:36:32.625Z,7.63
2018-09-04T15:39:01.434Z,70.93
2018-09-04T15:41:30.064Z,23.37
2018-09-04T15:43:59.380Z,6.13
2018-09-04T15:46:28.204Z,7.10
2018-09-04T15:49:02.120Z,62.97
2018-09-04T15:51:39.410Z,39.23
2018-09-04T15:54:08.252Z,4.77
2018-09-04T15:56:36.915Z,7.73
2018-09-04T15:59:05.529Z,33.93
2018-09-04T16:01:35.117Z,21.57
2018-09-04T16:04:04.015Z,21.87
2018-09-04T16:06:32.615Z,55.33
2018-09-04T16:09:01.260Z,18.63
2018-09-04T16:11:29.971Z,63.03
2018-09-04T16:13:58.712Z,43.03
2018-09-04T16:16:27.280Z,4.10
2018-09-04T16:18:55.844Z,6.97
2018-09-04T16:21:24.550Z,4.67
2018-09-04T16:23:53.165Z,9.43
2018-09-04T16:26:23.562Z,6.43
2018-09-04T16:28:53.355Z,4.80
2018-09-04T16:31:22.120Z,5.90
2018-09-04T16:33:50.820Z,4.87
2018-09-04T16:36:20.413Z,5.33
2018-09-04T16:38:50.744Z,5.50
2018-09-04T16:41:19.360Z,9.87
2018-09-04T16:43:48.119Z,13.20
2018-09-04T16:46:16.829Z,22.53
2018-09-04T16:48:45.577Z,30.87
2018-09-04T16:51:14.366Z,22.17
2018-09-04T16:53:43.106Z,8.83
2018-09-04T16:56:11.773Z,6.43
2018-09-04T16:58:40.468Z,9.50
2018-09-04T17:01:10.329Z,7.00
2018-09-04T17:03:40.057Z,8.80
2018-09-04T17:06:08.652Z,9.20
2018-09-04T17:08:37.398Z,6.73
2018-09-04T17:11:06.233Z,6.23
2018-09-04T17:13:34.919Z,7.07
2018-09-04T17:16:03.750Z,8.97
2018-09-04T17:18:32.487Z,12.20
2018-09-04T17:21:01.122Z,13.17
2018-09-04T17:23:29.991Z,20.90
2018-09-04T17:25:58.577Z,14.73
2018-09-04T17:28:28.203Z,14.40
2018-09-04T17:30:56.835Z,7.03
2018-09-04T17:33:26.460Z,9.07
2018-09-04T17:35:55.307Z,6.90
2018-09-04T17:38:24.067Z,6.43
2018-09-04T17:40:54.671Z,9.83
2018-09-04T17:43:26.079Z,9.60
2018-09-04T17:45:54.830Z,9.53
2018-09-04T17:48:23.665Z,9.63
2018-09-04T17:50:53.275Z,9.23
2018-09-04T17:53:21.796Z,9.53
2018-09-04T17:55:50.419Z,9.17
2018-09-04T17:58:19.179Z,9.93
2018-09-04T18:00:48.994Z,9.60
2018-09-04T18:03:17.675Z,11.00
2018-09-04T18:05:46.406Z,10.73
2018-09-04T18:08:15.073Z,9.73
2018-09-04T18:10:44.052Z,8.00
2018-09-04T18:13:12.863Z,9.90
2018-09-04T18:15:41.701Z,12.87
2018-09-04T18:18:10.401Z,9.60
2018-09-04T18:20:39.024Z,9.57
2018-09-04T18:23:07.712Z,10.30
2018-09-04T18:25:36.383Z,13.10
2018-09-04T18:28:05.271Z,10.20
2018-09-04T18:30:34.219Z,10.57
2018-09-04T18:33:03.884Z,12.30
2018-09-04T18:35:32.821Z,21.77
2018-09-04T18:38:01.727Z,11.57
2018-09-04T18:40:30.471Z,12.90
2018-09-04T18:42:59.197Z,13.60
2018-09-04T18:45:46.583Z,9.43
2018-09-04T18:48:15.665Z,10.20
2018-09-04T18:50:48.178Z,12.90
2018-09-04T18:53:16.945Z,11.40
2018-09-04T18:55:46.120Z,10.83
2018-09-04T18:58:16.838Z,12.13
2018-09-04T19:00:46.042Z,8.13
2018-09-04T19:03:14.968Z,11.97
2018-09-04T19:05:44.809Z,13.57
2018-09-04T19:08:13.609Z,13.10
2018-09-04T19:10:45.936Z,11.73
2018-09-04T19:13:15.851Z,12.40
2018-09-04T19:15:45.776Z,10.90
2018-09-04T19:18:15.576Z,9.67
2018-09-04T19:20:44.617Z,9.73
2018-09-04T19:23:13.536Z,8.63
2018-09-04T19:25:42.866Z,13.13
2018-09-04T19:28:12.620Z,11.23
2018-09-04T19:30:41.636Z,9.60
2018-09-04T19:33:10.399Z,10.70
2018-09-04T19:35:40.517Z,11.37
2018-09-04T19:38:09.346Z,9.63
2018-09-04T19:40:39.363Z,9.87
2018-09-04T19:43:08.871Z,10.37
2018-09-04T19:45:38.792Z,11.27
2018-09-04T19:48:08.395Z,9.17
2018-09-04T19:50:37.294Z,9.63
2018-09-04T19:53:06.075Z,13.03
2018-09-04T19:55:34.819Z,11.63
2018-09-04T19:58:03.533Z,10.10
2018-09-04T20:00:32.323Z,10.27
2018-09-04T20:03:01.153Z,13.83
2018-09-04T20:05:29.952Z,10.47
2018-09-04T20:07:58.834Z,12.20
2018-09-04T20:10:27.460Z,11.73
2018-09-04T20:12:56.177Z,12.13
2018-09-04T20:15:25.380Z,11.50
2018-09-04T20:17:55.916Z,11.33
2018-09-04T20:20:24.564Z,11.47
2018-09-04T20:22:53.792Z,13.50
2018-09-04T20:25:22.943Z,9.50
2018-09-04T20:27:51.796Z,10.90
2018-09-04T20:30:20.493Z,11.23
2018-09-04T20:32:49.209Z,9.77
2018-09-04T20:35:18.072Z,12.83
2018-09-04T20:37:47.209Z,9.97
2018-09-04T20:40:15.988Z,10.97
2018-09-04T20:42:45.364Z,13.87
2018-09-04T20:45:15.924Z,13.77
2018-09-04T20:47:45.421Z,12.13
2018-09-04T20:50:14.041Z,13.77
2018-09-04T20:52:42.834Z,10.20
2018-09-04T20:55:11.560Z,10.63
2018-09-04T20:57:40.221Z,10.73
2018-09-04T21:00:26.328Z,11.83
2018-09-04T21:03:06.093Z,14.47
2018-09-04T21:05:45.949Z,15.03
2018-09-04T21:08:21.962Z,16.93
2018-09-04T21:10:51.510Z,15.80
2018-09-04T21:13:22.208Z,19.07
2018-09-04T21:15:51.105Z,14.43
2018-09-04T21:18:20.692Z,17.17
2018-09-04T21:20:49.928Z,16.23
2018-09-04T21:23:18.662Z,15.93
2018-09-04T21:25:47.323Z,14.13
2018-09-04T21:28:16.127Z,12.37
2018-09-04T21:30:44.723Z,16.17
2018-09-04T21:33:13.443Z,14.80
2018-09-04T21:35:42.215Z,18.77
2018-09-04T21:38:11.157Z,15.17
2018-09-04T21:40:39.879Z,21.13
2018-09-04T21:43:08.544Z,16.50
2018-09-04T21:45:37.427Z,15.67
2018-09-04T21:48:06.236Z,19.50
2018-09-04T21:50:35.013Z,15.90
2018-09-04T21:53:03.624Z,14.10
2018-09-04T21:55:32.300Z,16.27
2018-09-04T21:58:01.022Z,22.03
2018-09-04T22:00:30.124Z,17.07
2018-09-04T22:02:59.257Z,16.97
2018-09-04T22:05:27.893Z,17.43
2018-09-04T22:07:57.818Z,14.77
2018-09-04T22:10:27.516Z,16.47
2018-09-04T22:12:56.780Z,18.00
2018-09-04T22:15:25.493Z,16.77
2018-09-04T22:17:54.250Z,18.67
2018-09-04T22:20:22.916Z,16.73
2018-09-04T22:22:51.532Z,21.20
2018-09-04T22:25:20.180Z,18.37
2018-09-04T22:27:48.859Z,19.27
2018-09-04T22:30:17.692Z,19.80
2018-09-04T22:32:46.575Z,19.33
2018-09-04T22:35:15.263Z,18.40
2018-09-04T22:37:44.190Z,22.77
2018-09-04T22:40:12.951Z,18.27
2018-09-04T22:42:42.215Z,18.10
2018-09-04T22:45:11.253Z,17.30
2018-09-04T22:47:41.176Z,17.47
2018-09-04T22:50:15.042Z,18.27
2018-09-04T22:52:43.588Z,19.47
2018-09-04T22:55:13.580Z,16.87
2018-09-04T22:57:43.530Z,18.47
2018-09-04T23:00:13.695Z,19.73
2018-09-04T23:02:42.641Z,19.87
2018-09-04T23:05:12.776Z,16.57
2018-09-04T23:07:41.428Z,17.00
2018-09-04T23:10:10.129Z,19.23
2018-09-04T23:12:38.934Z,18.10
2018-09-04T23:15:07.637Z,27.53
2018-09-04T23:17:36.275Z,25.03
2018-09-04T23:20:04.999Z,18.70
2018-09-04T23:22:33.764Z,19.37
2018-09-04T23:25:02.787Z,21.60
2018-09-04T23:27:31.565Z,17.10
2018-09-04T23:30:00.256Z,20.27
2018-09-04T23:32:29.069Z,20.90
2018-09-04T23:34:57.988Z,22.20
2018-09-04T23:37:26.705Z,21.77
2018-09-04T23:39:55.256Z,20.07
2018-09-04T23:42:24.172Z,19.20
2018-09-04T23:44:52.684Z,21.97
2018-09-04T23:47:21.397Z,23.67
2018-09-04T23:49:50.152Z,23.07
2018-09-04T23:52:18.895Z,23.07
2018-09-04T23:54:47.676Z,25.60
2018-09-04T23:57:16.280Z,21.17
2018-09-04T23:59:45.173Z,21.90
